Aviation Digital Data Service (ADDS)

Output produced by TAFs form (1515 UTC 23 October 2017)
found at http://www.aviationweather.gov/adds/tafs/
 
KMCN 231453Z 18012G19KT 10SM BKN013 BKN018 OVC055 23/22 A2989 RMK AO2 RAE15 SLP116 P0000 60007 T02330217 58016
KMCN 231311Z 2313/2412 16008KT 6SM SHRA BR SCT006 BKN015 
     TEMPO 2315/2318 VRB10G20KT 3SM TSRA BKN010CB 
     FM231900 21012G22KT 6SM BR VCSH OVC020 
     FM232200 25010KT P6SM SCT030 
     FM240000 29008KT P6SM SCT250 
     FM240500 29004KT P6SM SKC